createdAt,value
2017-12-13T00:00:06.044Z,29.8
2017-12-13T00:02:10.437Z,29.8
2017-12-13T00:04:07.754Z,29.9
2017-12-13T00:06:05.505Z,29.9
2017-12-13T00:08:10.292Z,29.8
2017-12-13T00:10:13.370Z,29.8
2017-12-13T00:12:05.169Z,29.8
2017-12-13T00:14:10.971Z,29.7
2017-12-13T00:16:05.692Z,29.7
2017-12-13T00:18:05.626Z,29.7
2017-12-13T00:20:05.410Z,29.8
2017-12-13T00:22:05.192Z,29.7
2017-12-13T00:24:11.005Z,29.5
2017-12-13T00:26:08.302Z,29.7
2017-12-13T00:28:05.052Z,29.7
2017-12-13T00:30:05.330Z,29.5
2017-12-13T00:32:05.111Z,29.8
2017-12-13T00:34:05.856Z,29.6
2017-12-13T00:36:05.115Z,29.6
2017-12-13T00:38:05.860Z,29.6
2017-12-13T00:40:05.670Z,29.5
2017-12-13T00:42:07.987Z,29.6
2017-12-13T00:44:05.827Z,29.6
2017-12-13T00:46:05.690Z,29.5
2017-12-13T00:48:05.425Z,29.5
2017-12-13T00:50:07.715Z,29.4
2017-12-13T00:52:07.974Z,29.5
2017-12-13T00:54:05.758Z,29.4
2017-12-13T00:56:08.070Z,29.4
2017-12-13T00:58:05.364Z,29.4
2017-12-13T01:00:07.635Z,29.4
2017-12-13T01:02:07.954Z,29.4
2017-12-13T01:04:10.316Z,29.2
2017-12-13T01:06:05.118Z,29.2
2017-12-13T01:08:05.893Z,29.2
2017-12-13T01:10:05.647Z,29.2
2017-12-13T01:12:10.520Z,29.2
2017-12-13T01:14:15.960Z,29.2
2017-12-13T01:16:08.282Z,29.2
2017-12-13T01:18:07.743Z,29.1
2017-12-13T01:20:05.440Z,29.1
2017-12-13T01:22:05.182Z,29.1
2017-12-13T01:24:05.945Z,29.2
2017-12-13T01:26:05.716Z,29.1
2017-12-13T01:28:05.456Z,29.1
2017-12-13T01:30:05.165Z,28.9
2017-12-13T01:32:05.965Z,29
2017-12-13T01:34:05.735Z,29
2017-12-13T01:36:05.589Z,28.9
2017-12-13T01:38:05.341Z,28.9
2017-12-13T01:40:05.094Z,28.9
2017-12-13T01:42:05.338Z,29.2
2017-12-13T01:44:07.692Z,28.9
2017-12-13T01:46:05.986Z,28.9
2017-12-13T01:48:05.730Z,28.9
2017-12-13T01:50:08.066Z,28.9
2017-12-13T01:52:05.431Z,28.9
2017-12-13T01:54:07.725Z,28.9
2017-12-13T01:56:05.464Z,28.9
2017-12-13T01:58:07.731Z,28.9
2017-12-13T02:00:08.003Z,28.9
2017-12-13T02:02:10.834Z,29
2017-12-13T02:04:08.139Z,28.9
2017-12-13T02:06:05.941Z,28.9
2017-12-13T02:08:05.687Z,28.9
2017-12-13T02:10:05.574Z,28.7
2017-12-13T02:12:05.339Z,28.7
2017-12-13T02:14:05.631Z,28.8
2017-12-13T02:16:10.562Z,29
2017-12-13T02:18:05.578Z,28.8
2017-12-13T02:20:05.321Z,28.8
2017-12-13T02:22:05.667Z,28.8
2017-12-13T02:24:05.575Z,28.8
2017-12-13T02:26:10.399Z,28.8
2017-12-13T02:28:07.687Z,28.8
2017-12-13T02:30:05.499Z,28.8
2017-12-13T02:32:05.900Z,28.8
2017-12-13T02:34:05.871Z,28.8
2017-12-13T02:36:10.788Z,28.7
2017-12-13T02:38:05.036Z,28.7
2017-12-13T02:40:08.344Z,28.7
2017-12-13T02:42:05.149Z,28.7
2017-12-13T02:44:05.391Z,28.7
2017-12-13T02:46:05.233Z,28.7
2017-12-13T02:48:05.964Z,28.7
2017-12-13T02:50:05.251Z,28.7
2017-12-13T02:52:05.633Z,28.7
2017-12-13T02:54:11.027Z,28.7
2017-12-13T02:56:05.751Z,28.7
2017-12-13T02:58:05.526Z,28.7
2017-12-13T03:00:05.288Z,28.8
2017-12-13T03:02:07.618Z,28.7
2017-12-13T03:04:05.955Z,28.7
2017-12-13T03:06:13.306Z,28.8
2017-12-13T03:08:05.124Z,28.8
2017-12-13T03:10:05.982Z,28.6
2017-12-13T03:12:08.252Z,28.6
2017-12-13T03:14:05.027Z,28.6
2017-12-13T03:16:05.787Z,28.7
2017-12-13T03:18:05.733Z,28.8
2017-12-13T03:20:05.671Z,28.8
2017-12-13T03:22:05.422Z,28.6
2017-12-13T03:24:05.201Z,28.6
2017-12-13T03:26:05.968Z,28.7
2017-12-13T03:28:05.739Z,28.6
2017-12-13T03:30:05.481Z,28.6
2017-12-13T03:32:05.257Z,28.7
2017-12-13T03:34:06.056Z,28.7
2017-12-13T03:36:05.304Z,28.6
2017-12-13T03:38:07.542Z,28.6
2017-12-13T03:40:05.838Z,28.6
2017-12-13T03:42:05.106Z,28.7
2017-12-13T03:44:05.884Z,28.6
2017-12-13T03:46:05.677Z,28.6
2017-12-13T03:48:05.445Z,28.6
2017-12-13T03:50:07.810Z,28.6
2017-12-13T03:52:05.673Z,28.6
2017-12-13T03:54:05.445Z,28.6
2017-12-13T03:56:05.216Z,28.6
2017-12-13T03:58:06.082Z,28.6
2017-12-13T04:00:08.341Z,28.4
2017-12-13T04:02:05.106Z,28.6
2017-12-13T04:04:11.009Z,28.4
2017-12-13T04:06:05.771Z,28.4
2017-12-13T04:08:05.577Z,28.6
2017-12-13T04:10:06.034Z,28.6
2017-12-13T04:12:05.749Z,28.6
2017-12-13T04:14:05.567Z,28.6
2017-12-13T04:16:07.841Z,28.6
2017-12-13T04:18:16.002Z,28.5
2017-12-13T04:20:05.842Z,28.5
2017-12-13T04:22:07.683Z,28.5
2017-12-13T04:24:08.470Z,28.4
2017-12-13T04:26:08.328Z,28.4
2017-12-13T04:28:05.139Z,28.4
2017-12-13T04:30:05.908Z,28.4
2017-12-13T04:32:05.677Z,28.4
2017-12-13T04:34:05.424Z,28.4
2017-12-13T04:36:05.232Z,28.5
2017-12-13T04:38:08.551Z,28.4
2017-12-13T04:40:07.803Z,28.4
2017-12-13T04:42:07.580Z,28.4
2017-12-13T04:44:05.394Z,28.4
2017-12-13T04:46:05.158Z,28.4
2017-12-13T04:48:05.916Z,28.5
2017-12-13T04:50:10.264Z,28.4
2017-12-13T04:52:08.578Z,28.5
2017-12-13T04:54:05.375Z,28.5
2017-12-13T04:56:05.112Z,28.5
2017-12-13T04:58:08.417Z,28.5
2017-12-13T05:00:05.171Z,28.4
2017-12-13T05:02:08.445Z,28.6
2017-12-13T05:04:05.275Z,28.4
2017-12-13T05:06:05.047Z,28.4
2017-12-13T05:08:05.806Z,28.4
2017-12-13T05:10:05.111Z,28.6
2017-12-13T05:12:07.930Z,28.6
2017-12-13T05:14:05.218Z,28.6
2017-12-13T05:16:05.978Z,28.5
2017-12-13T05:18:05.923Z,28.5
2017-12-13T05:20:08.184Z,28.6
2017-12-13T05:22:05.942Z,28.6
2017-12-13T05:24:08.235Z,28.6
2017-12-13T05:26:06.021Z,28.6
2017-12-13T05:28:05.264Z,28.6
2017-12-13T05:30:06.037Z,28.8
2017-12-13T05:32:05.924Z,28.6
2017-12-13T05:34:05.729Z,28.8
2017-12-13T05:36:08.597Z,28.8
2017-12-13T05:38:07.936Z,28.9
2017-12-13T05:40:09.090Z,29
2017-12-13T05:42:05.421Z,29
2017-12-13T05:44:08.262Z,28.9
2017-12-13T05:46:06.016Z,28.9
2017-12-13T05:48:05.904Z,28.7
2017-12-13T05:50:08.216Z,28.6
2017-12-13T05:52:08.524Z,28.6
2017-12-13T05:54:05.292Z,28.6
2017-12-13T05:56:07.618Z,28.7
2017-12-13T05:58:05.916Z,28.7
2017-12-13T06:00:10.730Z,28.8
2017-12-13T06:02:08.011Z,28.9
2017-12-13T06:04:05.659Z,28.7
2017-12-13T06:06:05.399Z,28.7
2017-12-13T06:08:05.692Z,28.8
2017-12-13T06:10:06.018Z,28.8
2017-12-13T06:12:05.788Z,28.7
2017-12-13T06:14:05.605Z,28.8
2017-12-13T06:16:05.380Z,28.8
2017-12-13T06:18:05.264Z,28.7
2017-12-13T06:20:08.102Z,28.7
2017-12-13T06:22:05.060Z,28.7
2017-12-13T06:24:05.815Z,28.8
2017-12-13T06:26:05.568Z,28.8
2017-12-13T06:28:05.282Z,28.8
2017-12-13T06:30:08.569Z,28.7
2017-12-13T06:32:05.924Z,28.7
2017-12-13T06:34:05.714Z,28.7
2017-12-13T06:36:05.501Z,28.6
2017-12-13T06:38:12.896Z,28.7
2017-12-13T06:40:05.631Z,28.7
2017-12-13T06:42:05.361Z,28.7
2017-12-13T06:44:07.645Z,28.8
2017-12-13T06:46:08.025Z,28.8
2017-12-13T06:48:05.832Z,28.7
2017-12-13T06:50:05.590Z,28.7
2017-12-13T06:52:05.436Z,28.7
2017-12-13T06:54:05.714Z,28.8
2017-12-13T06:56:12.033Z,28.7
2017-12-13T06:58:05.359Z,28.5
2017-12-13T07:00:05.156Z,28.7
2017-12-13T07:02:05.890Z,28.7
2017-12-13T07:04:10.417Z,28.5
2017-12-13T07:06:05.162Z,28.5
2017-12-13T07:08:10.979Z,28.7
2017-12-13T07:10:05.724Z,28.7
2017-12-13T07:12:10.564Z,28.7
2017-12-13T07:14:05.304Z,28.7
2017-12-13T07:16:05.213Z,28.6
2017-12-13T07:18:10.284Z,28.6
2017-12-13T07:20:05.516Z,28.6
2017-12-13T07:22:05.238Z,28.6
2017-12-13T07:24:11.033Z,28.6
2017-12-13T07:26:05.760Z,28.5
2017-12-13T07:28:05.543Z,28.6
2017-12-13T07:30:05.391Z,28.6
2017-12-13T07:32:05.155Z,28.6
2017-12-13T07:34:05.503Z,28.6
2017-12-13T07:36:05.278Z,28.6
2017-12-13T07:38:05.747Z,28.4
2017-12-13T07:40:05.522Z,28.5
2017-12-13T07:42:05.294Z,28.6
2017-12-13T07:44:05.590Z,28.6
2017-12-13T07:46:05.891Z,28.6
2017-12-13T07:48:05.176Z,28.5
2017-12-13T07:50:05.963Z,28.5
2017-12-13T07:52:05.766Z,28.5
2017-12-13T07:54:05.523Z,28.5
2017-12-13T07:56:05.305Z,28.5
2017-12-13T07:58:05.049Z,28.5
2017-12-13T08:00:05.852Z,28.5
2017-12-13T08:02:05.639Z,28.6
2017-12-13T08:04:05.450Z,28.5
2017-12-13T08:06:05.254Z,28.5
2017-12-13T08:08:08.535Z,28.5
2017-12-13T08:10:13.257Z,28.5
2017-12-13T08:12:21.176Z,28.5
2017-12-13T08:14:05.903Z,28.5
2017-12-13T08:16:05.702Z,28.5
2017-12-13T08:18:05.677Z,28.5
2017-12-13T08:20:05.431Z,28.5
2017-12-13T08:22:05.179Z,28.6
2017-12-13T08:24:05.930Z,28.5
2017-12-13T08:26:05.183Z,28.6
2017-12-13T08:28:05.901Z,28.5
2017-12-13T08:30:05.668Z,28.5
2017-12-13T08:32:05.415Z,28.5
2017-12-13T08:34:05.285Z,28.6
2017-12-13T08:36:05.032Z,28.6
2017-12-13T08:38:05.825Z,28.6
2017-12-13T08:40:05.631Z,28.7
2017-12-13T08:42:05.385Z,28.7
2017-12-13T08:44:05.122Z,28.7
2017-12-13T08:46:05.907Z,28.6
2017-12-13T08:48:05.645Z,28.8
2017-12-13T08:50:05.974Z,28.7
2017-12-13T08:52:08.267Z,28.8
2017-12-13T08:54:06.056Z,28.8
2017-12-13T08:56:05.928Z,28.8
2017-12-13T08:58:05.733Z,28.6
2017-12-13T09:00:08.016Z,28.6
2017-12-13T09:02:05.914Z,28.6
2017-12-13T09:04:05.684Z,28.8
2017-12-13T09:06:05.431Z,28.7
2017-12-13T09:08:07.704Z,28.5
2017-12-13T09:10:05.436Z,28.5
2017-12-13T09:12:05.247Z,28.6
2017-12-13T09:14:06.002Z,28.7
2017-12-13T09:16:05.786Z,28.6
2017-12-13T09:18:05.755Z,28.7
2017-12-13T09:20:05.470Z,28.7
2017-12-13T09:22:05.840Z,28.7
2017-12-13T09:24:05.568Z,28.7
2017-12-13T09:26:05.338Z,28.5
2017-12-13T09:28:05.128Z,28.7
2017-12-13T09:30:08.361Z,28.7
2017-12-13T09:32:12.681Z,28.5
2017-12-13T09:34:08.477Z,28.5
2017-12-13T09:36:05.224Z,28.7
2017-12-13T09:38:05.472Z,28.7
2017-12-13T09:40:05.201Z,28.5
2017-12-13T09:42:05.893Z,28.7
2017-12-13T09:44:10.823Z,28.7
2017-12-13T09:46:05.829Z,28.7
2017-12-13T09:48:08.219Z,28.6
2017-12-13T09:50:08.490Z,28.7
2017-12-13T09:52:05.778Z,28.7
2017-12-13T09:54:05.594Z,28.6
2017-12-13T09:56:05.499Z,28.7
2017-12-13T09:58:05.882Z,28.7
2017-12-13T10:00:05.658Z,28.5
2017-12-13T10:02:05.431Z,28.7
2017-12-13T10:04:05.211Z,28.7
2017-12-13T10:06:08.554Z,28.7
2017-12-13T10:08:05.811Z,28.7
2017-12-13T10:10:10.910Z,28.6
2017-12-13T10:12:06.294Z,28.6
2017-12-13T10:14:07.835Z,28.6
2017-12-13T10:16:07.107Z,28.6
2017-12-13T10:18:08.840Z,28.6
2017-12-13T10:20:05.862Z,28.6
2017-12-13T10:22:05.239Z,28.6
2017-12-13T10:24:13.660Z,28.6
2017-12-13T10:26:05.442Z,28.6
2017-12-13T10:28:07.702Z,28.6
2017-12-13T10:30:05.478Z,28.6
2017-12-13T10:32:05.284Z,28.6
2017-12-13T10:34:06.108Z,28.6
2017-12-13T10:36:08.423Z,28.6
2017-12-13T10:38:05.253Z,28.6
2017-12-13T10:40:06.031Z,28.7
2017-12-13T10:42:08.361Z,28.6
2017-12-13T10:44:05.800Z,28.6
2017-12-13T10:46:05.543Z,28.7
2017-12-13T10:48:05.819Z,28.7
2017-12-13T10:50:07.605Z,28.7
2017-12-13T10:52:05.328Z,28.6
2017-12-13T10:54:07.567Z,28.7
2017-12-13T10:56:06.025Z,28.7
2017-12-13T10:58:08.376Z,28.7
2017-12-13T11:00:05.202Z,28.7
2017-12-13T11:02:07.730Z,28.6
2017-12-13T11:04:05.451Z,28.6
2017-12-13T11:06:08.132Z,28.7
2017-12-13T11:08:06.953Z,28.6
2017-12-13T11:10:05.298Z,28.7
2017-12-13T11:12:05.740Z,28.6
2017-12-13T11:14:05.725Z,28.7
2017-12-13T11:16:14.538Z,28.7
2017-12-13T11:18:08.037Z,28.6
2017-12-13T11:20:05.096Z,28.7
2017-12-13T11:22:08.444Z,28.7
2017-12-13T11:24:05.211Z,28.7
2017-12-13T11:26:06.015Z,28.7
2017-12-13T11:28:08.295Z,28.9
2017-12-13T11:30:08.611Z,28.7
2017-12-13T11:32:08.139Z,28.7
2017-12-13T11:34:08.564Z,28.7
2017-12-13T11:36:05.745Z,28.7
2017-12-13T11:38:06.123Z,28.7
2017-12-13T11:40:05.355Z,28.7
2017-12-13T11:42:08.829Z,28.7
2017-12-13T11:44:08.088Z,28.9
2017-12-13T11:46:06.501Z,28.9
2017-12-13T11:48:09.503Z,28.9
2017-12-13T11:50:06.507Z,28.9
2017-12-13T11:52:06.254Z,29.4
2017-12-13T11:54:05.853Z,29.4
2017-12-13T11:56:05.206Z,29.7
2017-12-13T11:58:05.937Z,29.8
2017-12-13T12:00:05.431Z,29.7
2017-12-13T12:02:05.661Z,30
2017-12-13T12:04:08.303Z,30.2
2017-12-13T12:06:05.029Z,30.2
2017-12-13T12:08:07.915Z,30.1
2017-12-13T12:10:16.132Z,30.6
2017-12-13T12:12:05.943Z,30.6
2017-12-13T12:14:05.674Z,30.7
2017-12-13T12:16:05.986Z,30.6
2017-12-13T12:18:05.928Z,30.8
2017-12-13T12:20:08.467Z,30.8
2017-12-13T12:22:12.847Z,31.1
2017-12-13T12:24:08.383Z,31.1
2017-12-13T12:26:05.861Z,31.1
2017-12-13T12:28:08.623Z,31.2
2017-12-13T12:30:06.830Z,31.2
2017-12-13T12:32:06.551Z,31.2
2017-12-13T12:34:13.486Z,31.3
2017-12-13T12:36:08.839Z,31.2
2017-12-13T12:38:05.277Z,31.2
2017-12-13T12:40:06.090Z,31.3
2017-12-13T12:42:07.597Z,31.2
2017-12-13T12:44:05.841Z,31.3
2017-12-13T12:46:05.613Z,31.4
2017-12-13T12:48:05.419Z,31.3
2017-12-13T12:50:06.079Z,31.3
2017-12-13T12:52:05.941Z,31.4
2017-12-13T12:54:05.896Z,31.5
2017-12-13T12:56:05.809Z,31.2
2017-12-13T12:58:05.687Z,31.4
2017-12-13T13:00:05.565Z,31.5
2017-12-13T13:02:05.355Z,31.3
2017-12-13T13:04:05.076Z,31.3
2017-12-13T13:06:06.927Z,31.3
2017-12-13T13:08:06.355Z,31.3
2017-12-13T13:10:05.129Z,31.4
2017-12-13T13:12:05.378Z,31.3
2017-12-13T13:14:05.210Z,31.4
2017-12-13T13:16:05.105Z,31.4
2017-12-13T13:18:05.359Z,31.4
2017-12-13T13:20:05.887Z,31.5
2017-12-13T13:22:10.983Z,31.4
2017-12-13T13:24:06.761Z,31.4
2017-12-13T13:26:08.267Z,31.5
2017-12-13T13:28:07.466Z,31.5
2017-12-13T13:30:06.651Z,31.5
2017-12-13T13:32:05.398Z,31.3
2017-12-13T13:34:06.248Z,31.6
2017-12-13T13:36:08.914Z,31.3
2017-12-13T13:38:12.858Z,31.2
2017-12-13T13:40:06.689Z,31.2
2017-12-13T13:42:15.232Z,31.2
2017-12-13T13:44:06.045Z,31.2
2017-12-13T13:46:05.417Z,31.1
2017-12-13T13:48:07.776Z,31.1
2017-12-13T13:50:05.570Z,31
2017-12-13T13:52:05.381Z,31.1
2017-12-13T13:54:05.182Z,31.3
2017-12-13T13:56:05.463Z,31.2
2017-12-13T13:58:08.326Z,31.2
2017-12-13T14:00:12.658Z,31.2
2017-12-13T14:02:05.518Z,31.2
2017-12-13T14:04:05.694Z,31.2
2017-12-13T14:06:05.920Z,31
2017-12-13T14:08:05.695Z,30.8
2017-12-13T14:10:05.470Z,31
2017-12-13T14:12:07.585Z,30.8
2017-12-13T14:14:05.410Z,30.7
2017-12-13T14:16:05.291Z,30.9
2017-12-13T14:18:05.246Z,30.7
2017-12-13T14:20:05.999Z,30.9
2017-12-13T14:22:08.532Z,30.8
2017-12-13T14:24:05.290Z,30.9
2017-12-13T14:26:05.087Z,30.9
2017-12-13T14:28:05.366Z,30.7
2017-12-13T14:30:05.680Z,30.8
2017-12-13T14:32:05.959Z,30.7
2017-12-13T14:34:06.251Z,30.8
2017-12-13T14:36:08.875Z,30.8
2017-12-13T14:38:06.771Z,30.7
2017-12-13T14:40:05.829Z,30.6
2017-12-13T14:42:08.146Z,30.4
2017-12-13T14:44:05.905Z,30.4
2017-12-13T14:46:09.206Z,30.4
2017-12-13T14:48:06.468Z,30.4
2017-12-13T14:50:07.968Z,30.4
2017-12-13T14:52:08.881Z,30.2
2017-12-13T14:54:11.120Z,30.1
2017-12-13T14:56:05.589Z,30.1
2017-12-13T14:58:05.438Z,30.2
2017-12-13T15:00:05.499Z,30.1
2017-12-13T15:02:07.031Z,30
2017-12-13T15:04:05.148Z,30
2017-12-13T15:06:10.569Z,30
2017-12-13T15:08:05.049Z,30
2017-12-13T15:10:10.456Z,29.9
2017-12-13T15:12:11.550Z,30.3
2017-12-13T15:14:06.843Z,30.3
2017-12-13T15:16:18.185Z,30.1
2017-12-13T15:18:05.378Z,30.1
2017-12-13T15:20:06.269Z,30.2
2017-12-13T15:22:07.662Z,30.2
2017-12-13T15:24:05.696Z,30
2017-12-13T15:26:05.447Z,30
2017-12-13T15:28:11.186Z,30.2
2017-12-13T15:30:05.248Z,30.3
2017-12-13T15:32:14.644Z,30
2017-12-13T15:34:05.636Z,30
2017-12-13T15:36:05.841Z,30.1
2017-12-13T15:38:07.695Z,30.1
2017-12-13T15:40:15.546Z,30.1
2017-12-13T15:42:05.806Z,30.2
2017-12-13T15:44:09.025Z,30
2017-12-13T15:46:05.807Z,30
2017-12-13T15:48:05.532Z,30
2017-12-13T15:50:05.727Z,30
2017-12-13T15:52:13.659Z,30
2017-12-13T15:54:05.335Z,30
2017-12-13T15:56:06.480Z,30
2017-12-13T15:58:08.349Z,30
2017-12-13T16:00:05.996Z,30
2017-12-13T16:02:05.165Z,30
2017-12-13T16:04:08.599Z,30
2017-12-13T16:06:05.380Z,30
2017-12-13T16:08:05.522Z,30
2017-12-13T16:10:08.186Z,30
2017-12-13T16:12:08.483Z,30.4
2017-12-13T16:14:05.564Z,30.4
2017-12-13T16:16:12.218Z,30.7
2017-12-13T16:18:13.524Z,31.1
2017-12-13T16:20:07.847Z,31.2
2017-12-13T16:22:05.078Z,31.3
2017-12-13T16:24:06.089Z,31.4
2017-12-13T16:26:05.279Z,31.3
2017-12-13T16:28:06.009Z,31.3
2017-12-13T16:30:05.308Z,31.4
2017-12-13T16:32:05.698Z,31.6
2017-12-13T16:34:06.149Z,31.6
2017-12-13T16:36:06.462Z,31.5
2017-12-13T16:38:05.534Z,31.8
2017-12-13T16:40:05.823Z,31.6
2017-12-13T16:42:07.551Z,31.9
2017-12-13T16:44:06.500Z,31.7
2017-12-13T16:46:05.699Z,31.8
2017-12-13T16:48:08.425Z,31.9
2017-12-13T16:50:05.375Z,31.9
2017-12-13T16:52:10.684Z,31.6
2017-12-13T16:54:05.691Z,31.6
2017-12-13T16:56:06.215Z,31.5
2017-12-13T16:58:05.480Z,31.5
2017-12-13T17:00:05.231Z,31.4
2017-12-13T17:02:05.569Z,31.4
2017-12-13T17:04:05.951Z,31.2
2017-12-13T17:06:05.673Z,31.3
2017-12-13T17:08:06.473Z,31.3
2017-12-13T17:10:05.715Z,31.3
2017-12-13T17:12:06.674Z,31.3
2017-12-13T17:14:05.942Z,31.1
2017-12-13T17:16:05.298Z,31
2017-12-13T17:18:05.360Z,31
2017-12-13T17:20:06.096Z,31
2017-12-13T17:22:06.139Z,31
2017-12-13T17:24:06.951Z,30.9
2017-12-13T17:26:07.696Z,30.7
2017-12-13T17:28:06.255Z,30.7
2017-12-13T17:30:05.299Z,30.9
2017-12-13T17:32:05.087Z,30.7
2017-12-13T17:34:05.824Z,30.8
2017-12-13T17:36:05.627Z,30.8
2017-12-13T17:38:05.843Z,30.5
2017-12-13T17:40:06.734Z,30.5
2017-12-13T17:42:07.897Z,30.5
2017-12-13T17:44:05.682Z,30.5
2017-12-13T17:46:06.598Z,30.5
2017-12-13T17:48:11.987Z,30.7
2017-12-13T17:50:06.295Z,30.7
2017-12-13T17:52:05.947Z,30.7
2017-12-13T17:54:08.906Z,30.7
2017-12-13T17:56:09.142Z,30.7
2017-12-13T17:58:06.208Z,30.7
2017-12-13T18:00:05.920Z,30.7
2017-12-13T18:02:05.691Z,30.7
2017-12-13T18:04:05.664Z,30.7
2017-12-13T18:06:07.079Z,30.7
2017-12-13T18:08:06.675Z,30.7
2017-12-13T18:10:05.853Z,30.7
2017-12-13T18:12:05.172Z,30.7
2017-12-13T18:14:06.275Z,30.7
2017-12-13T18:16:06.010Z,30.7
2017-12-13T18:18:14.948Z,30.7
2017-12-13T18:20:05.256Z,30.7
2017-12-13T18:22:06.110Z,30.7
2017-12-13T18:24:06.076Z,30.7
2017-12-13T18:26:06.079Z,30.6
2017-12-13T18:28:05.600Z,30.7
2017-12-13T18:30:10.723Z,30.6
2017-12-13T18:32:11.325Z,30.6
2017-12-13T18:34:05.712Z,30.6
2017-12-13T18:36:06.222Z,30.7
2017-12-13T18:38:06.377Z,30.7
2017-12-13T18:40:05.614Z,30.5
2017-12-13T18:42:05.365Z,30.6
2017-12-13T18:44:05.138Z,30.5
2017-12-13T18:46:05.898Z,30.6
2017-12-13T18:48:05.672Z,30.6
2017-12-13T18:50:13.106Z,30.5
2017-12-13T18:52:06.243Z,30.5
2017-12-13T18:54:07.021Z,30.5
2017-12-13T18:56:06.233Z,30.5
2017-12-13T18:58:10.881Z,30.5
2017-12-13T19:00:05.304Z,30.4
2017-12-13T19:02:05.060Z,30.3
2017-12-13T19:04:09.736Z,30.5
2017-12-13T19:06:05.685Z,30.3
2017-12-13T19:08:05.426Z,30.3
2017-12-13T19:10:09.689Z,30.5
2017-12-13T19:12:08.575Z,30.4
2017-12-13T19:14:09.246Z,30.2
2017-12-13T19:16:08.720Z,30.2
2017-12-13T19:18:06.774Z,30.2
2017-12-13T19:20:06.749Z,30.4
2017-12-13T19:22:07.790Z,30.2
2017-12-13T19:24:06.324Z,30.2
2017-12-13T19:26:11.730Z,30.3
2017-12-13T19:28:10.744Z,30.3
2017-12-13T19:30:06.733Z,30.3
2017-12-13T19:32:05.182Z,30.2
2017-12-13T19:34:05.487Z,30.4
2017-12-13T19:36:05.492Z,30.2
2017-12-13T19:38:07.770Z,30.4
2017-12-13T19:40:08.116Z,30.4
2017-12-13T19:42:05.996Z,30.2
2017-12-13T19:44:06.124Z,30.1
2017-12-13T19:46:10.307Z,30.3
2017-12-13T19:48:05.592Z,30.3
2017-12-13T19:50:05.386Z,30.1
2017-12-13T19:52:06.010Z,30.3
2017-12-13T19:54:05.467Z,30.3
2017-12-13T19:56:06.352Z,30.3
2017-12-13T19:58:05.946Z,30.3
2017-12-13T20:00:05.729Z,30.3
2017-12-13T20:02:08.003Z,30.4
2017-12-13T20:04:08.283Z,30.3
2017-12-13T20:06:06.300Z,30.3
2017-12-13T20:08:08.509Z,30.3
2017-12-13T20:10:05.940Z,30.1
2017-12-13T20:12:08.344Z,30.1
2017-12-13T20:14:05.166Z,30.3
2017-12-13T20:16:05.965Z,30.3
2017-12-13T20:18:05.127Z,30.3
2017-12-13T20:20:05.690Z,30.1
2017-12-13T20:22:05.127Z,30
2017-12-13T20:24:06.538Z,30.1
2017-12-13T20:26:11.529Z,30.1
2017-12-13T20:28:06.906Z,30.2
2017-12-13T20:30:06.809Z,30.1
2017-12-13T20:32:06.026Z,30.2
2017-12-13T20:34:05.766Z,30.2
2017-12-13T20:36:06.164Z,30.2
2017-12-13T20:38:21.918Z,30.2
2017-12-13T20:40:05.241Z,30.2
2017-12-13T20:42:12.088Z,30.2
2017-12-13T20:44:05.891Z,30.2
2017-12-13T20:46:10.728Z,30.1
2017-12-13T20:48:06.764Z,30.1
2017-12-13T20:50:05.192Z,30.1
2017-12-13T20:52:05.463Z,30.1
2017-12-13T20:54:05.201Z,30.2
2017-12-13T20:56:08.595Z,30.1
2017-12-13T20:58:12.989Z,30.1
2017-12-13T21:00:05.382Z,30.1
2017-12-13T21:02:05.685Z,30.3
2017-12-13T21:04:05.453Z,30.3
2017-12-13T21:06:05.205Z,30.3
2017-12-13T21:08:05.990Z,30.4
2017-12-13T21:10:08.298Z,30.3
2017-12-13T21:12:06.013Z,30.3
2017-12-13T21:14:05.756Z,30.3
2017-12-13T21:16:10.618Z,30.3
2017-12-13T21:18:05.566Z,30.3
2017-12-13T21:20:08.439Z,30.7
2017-12-13T21:22:05.776Z,30.7
2017-12-13T21:24:05.486Z,30.7
2017-12-13T21:26:05.253Z,30.7
2017-12-13T21:28:08.615Z,30.7
2017-12-13T21:30:05.385Z,30.7
2017-12-13T21:32:05.712Z,30.7
2017-12-13T21:34:05.509Z,30.7
2017-12-13T21:36:05.342Z,30.7
2017-12-13T21:38:05.185Z,30.7
2017-12-13T21:40:05.984Z,30.7
2017-12-13T21:42:08.412Z,30.9
2017-12-13T21:44:05.220Z,30.7
2017-12-13T21:46:05.977Z,31
2017-12-13T21:48:05.730Z,30.9
2017-12-13T21:50:13.101Z,31
2017-12-13T21:52:07.892Z,31
2017-12-13T21:54:05.862Z,31
2017-12-13T21:56:05.709Z,31
2017-12-13T21:58:05.488Z,31
2017-12-13T22:00:05.247Z,31
2017-12-13T22:02:05.577Z,31
2017-12-13T22:04:05.610Z,31
2017-12-13T22:06:07.533Z,31
2017-12-13T22:08:11.898Z,31
2017-12-13T22:10:21.639Z,31
2017-12-13T22:12:08.234Z,31
2017-12-13T22:14:06.006Z,30.9
2017-12-13T22:16:07.978Z,30.9
2017-12-13T22:18:07.914Z,30.9
2017-12-13T22:20:05.835Z,30.9
2017-12-13T22:22:08.123Z,30.9
2017-12-13T22:24:07.366Z,30.9
2017-12-13T22:26:05.606Z,30.9
2017-12-13T22:28:05.868Z,30.9
2017-12-13T22:30:05.467Z,30.8
2017-12-13T22:32:05.462Z,30.6
2017-12-13T22:34:10.274Z,30.6
2017-12-13T22:36:04.998Z,30.6
2017-12-13T22:38:08.305Z,30.5
2017-12-13T22:40:07.704Z,30.6
2017-12-13T22:42:05.468Z,30.6
2017-12-13T22:44:07.779Z,30.5
2017-12-13T22:46:05.556Z,30.5
2017-12-13T22:48:08.206Z,30.5
2017-12-13T22:50:06.005Z,30.5
2017-12-13T22:52:05.781Z,30.6
2017-12-13T22:54:05.599Z,30.5
2017-12-13T22:56:05.401Z,30.5
2017-12-13T22:58:05.183Z,30.5
2017-12-13T23:00:05.950Z,30.5
2017-12-13T23:02:05.744Z,30.5
2017-12-13T23:04:05.475Z,30.5
2017-12-13T23:06:05.222Z,30.6
2017-12-13T23:08:06.055Z,30.5
2017-12-13T23:10:05.892Z,30.5
2017-12-13T23:12:05.679Z,30.5
2017-12-13T23:14:05.451Z,30.6
2017-12-13T23:16:05.257Z,30.6
2017-12-13T23:18:12.854Z,30.5
2017-12-13T23:20:05.647Z,30.5
2017-12-13T23:22:05.381Z,30.5
2017-12-13T23:24:17.796Z,30.5
2017-12-13T23:26:08.111Z,30.5
2017-12-13T23:28:10.435Z,30.5
2017-12-13T23:30:07.724Z,30.6
2017-12-13T23:32:06.011Z,30.5
2017-12-13T23:34:10.336Z,30.3
2017-12-13T23:36:07.600Z,30.3
2017-12-13T23:38:10.456Z,30.3
2017-12-13T23:40:05.820Z,30.3
2017-12-13T23:42:05.546Z,30.3
2017-12-13T23:44:07.824Z,30.3
2017-12-13T23:46:08.354Z,30.3
2017-12-13T23:48:05.442Z,30.3
2017-12-13T23:50:05.329Z,30.3
2017-12-13T23:52:05.090Z,30.3
2017-12-13T23:54:05.816Z,30.2
2017-12-13T23:56:08.121Z,30.2
2017-12-13T23:58:05.938Z,30.3
